sensor_id;sensor_type;location;lat;lon;timestamp;P1;durP1;ratioP1;P2;durP2;ratioP2
58774;SDS011;44545;47.480;19.024;2022-09-29T03:15:41;3.05;;;1.42;;
58774;SDS011;44545;47.480;19.024;2022-09-29T03:18:45;3.87;;;1.80;;
58774;SDS011;44545;47.480;19.024;2022-09-29T03:21:47;0.98;;;0.75;;
58774;SDS011;44545;47.480;19.024;2022-09-29T03:24:50;6.65;;;2.78;;
58774;SDS011;44545;47.480;19.024;2022-09-29T03:27:52;3.15;;;2.87;;
58774;SDS011;44545;47.480;19.024;2022-09-29T03:30:54;3.37;;;2.47;;
58774;SDS011;44545;47.480;19.024;2022-09-29T03:33:56;2.92;;;1.52;;
58774;SDS011;44545;47.480;19.024;2022-09-29T03:36:59;4.15;;;3.00;;
58774;SDS011;44545;47.480;19.024;2022-09-29T03:40:02;2.90;;;1.73;;
58774;SDS011;44545;47.480;19.024;2022-09-29T03:43:05;1.70;;;1.30;;
58774;SDS011;44545;47.480;19.024;2022-09-29T03:46:07;2.05;;;1.45;;
58774;SDS011;44545;47.480;19.024;2022-09-29T03:49:09;2.80;;;1.90;;
58774;SDS011;44545;47.480;19.024;2022-09-29T03:52:12;2.75;;;2.03;;
58774;SDS011;44545;47.480;19.024;2022-09-29T03:55:14;3.53;;;2.10;;
58774;SDS011;44545;47.480;19.024;2022-09-29T03:58:16;3.05;;;2.42;;
58774;SDS011;44545;47.480;19.024;2022-09-29T04:01:19;4.30;;;1.83;;
58774;SDS011;44545;47.480;19.024;2022-09-29T04:04:22;1.58;;;1.48;;
58774;SDS011;44545;47.480;19.024;2022-09-29T04:07:24;4.45;;;1.73;;
58774;SDS011;44545;47.480;19.024;2022-09-29T04:10:26;3.10;;;2.00;;
58774;SDS011;44545;47.480;19.024;2022-09-29T04:13:28;9.80;;;2.65;;
58774;SDS011;44545;47.480;19.024;2022-09-29T04:16:31;3.03;;;2.28;;
58774;SDS011;44545;47.480;19.024;2022-09-29T04:19:33;4.95;;;2.53;;
58774;SDS011;44545;47.480;19.024;2022-09-29T04:22:35;1.67;;;1.50;;
58774;SDS011;44545;47.480;19.024;2022-09-29T04:25:37;5.07;;;2.70;;
58774;SDS011;44545;47.480;19.024;2022-09-29T04:28:40;4.65;;;3.00;;
58774;SDS011;44545;47.480;19.024;2022-09-29T04:31:42;2.67;;;1.90;;
58774;SDS011;44545;47.480;19.024;2022-09-29T04:34:45;3.53;;;2.58;;
58774;SDS011;44545;47.480;19.024;2022-09-29T04:37:47;1.87;;;1.50;;
58774;SDS011;44545;47.480;19.024;2022-09-29T04:40:49;2.90;;;2.25;;
58774;SDS011;44545;47.480;19.024;2022-09-29T04:43:51;3.10;;;0.88;;
58774;SDS011;44545;47.480;19.024;2022-09-29T04:46:54;3.20;;;2.53;;
58774;SDS011;44545;47.480;19.024;2022-09-29T04:49:56;4.37;;;3.00;;
58774;SDS011;44545;47.480;19.024;2022-09-29T04:52:58;3.85;;;2.28;;
58774;SDS011;44545;47.480;19.024;2022-09-29T04:56:04;6.05;;;3.60;;
58774;SDS011;44545;47.480;19.024;2022-09-29T04:59:08;3.60;;;2.58;;
58774;SDS011;44545;47.480;19.024;2022-09-29T05:02:11;3.25;;;2.85;;
58774;SDS011;44545;47.480;19.024;2022-09-29T05:05:13;2.35;;;1.83;;
58774;SDS011;44545;47.480;19.024;2022-09-29T05:08:15;6.35;;;2.42;;
58774;SDS011;44545;47.480;19.024;2022-09-29T05:11:17;6.90;;;3.25;;
58774;SDS011;44545;47.480;19.024;2022-09-29T05:14:20;4.15;;;2.85;;
58774;SDS011;44545;47.480;19.024;2022-09-29T05:17:22;3.20;;;2.30;;
58774;SDS011;44545;47.480;19.024;2022-09-29T05:20:24;4.47;;;3.12;;
58774;SDS011;44545;47.480;19.024;2022-09-29T05:23:30;3.93;;;3.10;;
58774;SDS011;44545;47.480;19.024;2022-09-29T05:26:32;5.35;;;3.28;;
58774;SDS011;44545;47.480;19.024;2022-09-29T05:29:34;4.65;;;3.45;;
58774;SDS011;44545;47.480;19.024;2022-09-29T05:32:36;5.20;;;3.17;;
58774;SDS011;44545;47.480;19.024;2022-09-29T05:35:39;5.95;;;4.05;;
58774;SDS011;44545;47.480;19.024;2022-09-29T05:38:41;5.22;;;3.33;;
58774;SDS011;44545;47.480;19.024;2022-09-29T05:41:43;2.85;;;2.60;;
58774;SDS011;44545;47.480;19.024;2022-09-29T05:44:45;3.92;;;3.10;;
58774;SDS011;44545;47.480;19.024;2022-09-29T05:47:48;4.87;;;3.28;;
58774;SDS011;44545;47.480;19.024;2022-09-29T05:50:50;5.20;;;3.87;;
58774;SDS011;44545;47.480;19.024;2022-09-29T05:53:52;6.47;;;4.10;;
58774;SDS011;44545;47.480;19.024;2022-09-29T05:56:54;5.78;;;3.35;;
58774;SDS011;44545;47.480;19.024;2022-09-29T05:59:57;4.55;;;2.20;;
58774;SDS011;44545;47.480;19.024;2022-09-29T06:02:59;6.65;;;4.00;;
58774;SDS011;44545;47.480;19.024;2022-09-29T06:06:12;5.50;;;3.78;;
58774;SDS011;44545;47.480;19.024;2022-09-29T06:09:19;3.03;;;2.55;;
58774;SDS011;44545;47.480;19.024;2022-09-29T06:12:22;3.00;;;2.22;;
58774;SDS011;44545;47.480;19.024;2022-09-29T06:15:24;4.78;;;3.47;;
58774;SDS011;44545;47.480;19.024;2022-09-29T06:18:26;3.20;;;2.55;;
58774;SDS011;44545;47.480;19.024;2022-09-29T06:21:29;5.53;;;4.07;;
58774;SDS011;44545;47.480;19.024;2022-09-29T06:24:32;3.35;;;2.33;;
58774;SDS011;44545;47.480;19.024;2022-09-29T06:27:34;3.90;;;2.58;;
58774;SDS011;44545;47.480;19.024;2022-09-29T06:30:36;4.05;;;2.78;;
58774;SDS011;44545;47.480;19.024;2022-09-29T06:33:39;2.28;;;2.08;;
58774;SDS011;44545;47.480;19.024;2022-09-29T06:36:42;4.00;;;2.62;;
58774;SDS011;44545;47.480;19.024;2022-09-29T06:40:06;3.22;;;2.17;;
58774;SDS011;44545;47.480;19.024;2022-09-29T06:43:12;3.00;;;1.95;;
58774;SDS011;44545;47.480;19.024;2022-09-29T06:46:14;2.37;;;1.73;;
58774;SDS011;44545;47.480;19.024;2022-09-29T06:49:17;3.70;;;2.50;;
58774;SDS011;44545;47.480;19.024;2022-09-29T06:52:20;5.00;;;1.37;;
58774;SDS011;44545;47.480;19.024;2022-09-29T06:55:23;2.85;;;1.80;;
58774;SDS011;44545;47.480;19.024;2022-09-29T06:58:26;3.05;;;2.28;;
58774;SDS011;44545;47.480;19.024;2022-09-29T07:01:28;2.30;;;1.87;;
58774;SDS011;44545;47.480;19.024;2022-09-29T07:04:31;3.28;;;2.50;;
58774;SDS011;44545;47.480;19.024;2022-09-29T07:07:33;5.85;;;2.78;;
58774;SDS011;44545;47.480;19.024;2022-09-29T07:10:35;3.47;;;2.40;;
58774;SDS011;44545;47.480;19.024;2022-09-29T07:13:38;4.82;;;2.08;;
58774;SDS011;44545;47.480;19.024;2022-09-29T07:16:41;3.62;;;2.20;;
58774;SDS011;44545;47.480;19.024;2022-09-29T07:19:44;5.30;;;3.87;;
58774;SDS011;44545;47.480;19.024;2022-09-29T07:22:46;3.37;;;2.67;;
58774;SDS011;44545;47.480;19.024;2022-09-29T07:25:48;2.87;;;2.20;;
58774;SDS011;44545;47.480;19.024;2022-09-29T07:28:53;2.20;;;1.80;;
58774;SDS011;44545;47.480;19.024;2022-09-29T07:31:55;7.45;;;1.77;;
58774;SDS011;44545;47.480;19.024;2022-09-29T07:34:57;4.05;;;2.10;;
58774;SDS011;44545;47.480;19.024;2022-09-29T07:38:00;2.05;;;1.67;;
58774;SDS011;44545;47.480;19.024;2022-09-29T07:41:03;1.05;;;0.95;;
58774;SDS011;44545;47.480;19.024;2022-09-29T07:44:08;0.55;;;0.40;;
58774;SDS011;44545;47.480;19.024;2022-09-29T07:47:10;0.88;;;0.70;;
58774;SDS011;44545;47.480;19.024;2022-09-29T07:50:13;0.45;;;0.45;;
58774;SDS011;44545;47.480;19.024;2022-09-29T07:53:15;0.90;;;0.62;;
58774;SDS011;44545;47.480;19.024;2022-09-29T07:56:18;1.25;;;0.73;;
58774;SDS011;44545;47.480;19.024;2022-09-29T07:59:22;0.90;;;0.45;;
58774;SDS011;44545;47.480;19.024;2022-09-29T08:02:24;0.98;;;0.70;;
58774;SDS011;44545;47.480;19.024;2022-09-29T08:05:30;1.75;;;1.23;;
58774;SDS011;44545;47.480;19.024;2022-09-29T08:08:35;1.33;;;0.80;;
58774;SDS011;44545;47.480;19.024;2022-09-29T08:11:40;0.85;;;0.57;;
58774;SDS011;44545;47.480;19.024;2022-09-29T08:14:43;2.33;;;1.60;;
58774;SDS011;44545;47.480;19.024;2022-09-29T08:17:45;4.12;;;1.33;;
58774;SDS011;44545;47.480;19.024;2022-09-29T08:20:47;1.55;;;1.00;;
58774;SDS011;44545;47.480;19.024;2022-09-29T08:23:50;3.70;;;2.25;;
58774;SDS011;44545;47.480;19.024;2022-09-29T08:26:52;4.18;;;1.98;;
58774;SDS011;44545;47.480;19.024;2022-09-29T08:29:54;5.55;;;2.37;;
58774;SDS011;44545;47.480;19.024;2022-09-29T08:32:57;2.60;;;1.98;;
58774;SDS011;44545;47.480;19.024;2022-09-29T08:36:00;4.00;;;1.87;;
58774;SDS011;44545;47.480;19.024;2022-09-29T08:39:04;2.70;;;1.58;;
58774;SDS011;44545;47.480;19.024;2022-09-29T08:45:43;2.28;;;1.12;;
58774;SDS011;44545;47.480;19.024;2022-09-29T08:49:05;1.45;;;0.90;;
58774;SDS011;44545;47.480;19.024;2022-09-29T08:52:14;1.73;;;1.40;;
58774;SDS011;44545;47.480;19.024;2022-09-29T08:55:21;1.50;;;0.90;;
58774;SDS011;44545;47.480;19.024;2022-09-29T08:58:25;0.65;;;0.57;;
58774;SDS011;44545;47.480;19.024;2022-09-29T09:01:31;0.75;;;0.40;;
58774;SDS011;44545;47.480;19.024;2022-09-29T09:08:38;3.33;;;0.77;;
58774;SDS011;44545;47.480;19.024;2022-09-29T09:11:57;0.52;;;0.43;;
58774;SDS011;44545;47.480;19.024;2022-09-29T09:22:06;2.20;;;0.70;;
58774;SDS011;44545;47.480;19.024;2022-09-29T09:25:32;1.25;;;1.00;;
58774;SDS011;44545;47.480;19.024;2022-09-29T09:28:39;1.77;;;1.10;;
58774;SDS011;44545;47.480;19.024;2022-09-29T09:31:51;1.95;;;1.20;;
58774;SDS011;44545;47.480;19.024;2022-09-29T09:35:14;1.52;;;0.82;;
58774;SDS011;44545;47.480;19.024;2022-09-29T09:39:02;1.62;;;0.90;;
58774;SDS011;44545;47.480;19.024;2022-09-29T09:42:13;0.80;;;0.40;;
58774;SDS011;44545;47.480;19.024;2022-09-29T09:45:27;0.80;;;0.60;;
58774;SDS011;44545;47.480;19.024;2022-09-29T09:48:57;0.70;;;0.57;;
58774;SDS011;44545;47.480;19.024;2022-09-29T09:55:22;0.83;;;0.60;;
58774;SDS011;44545;47.480;19.024;2022-09-29T10:01:34;0.98;;;0.43;;
58774;SDS011;44545;47.480;19.024;2022-09-29T10:04:37;0.75;;;0.50;;
58774;SDS011;44545;47.480;19.024;2022-09-29T10:07:39;0.98;;;0.60;;
58774;SDS011;44545;47.480;19.024;2022-09-29T10:10:42;0.77;;;0.57;;
58774;SDS011;44545;47.480;19.024;2022-09-29T10:14:12;0.75;;;0.52;;
58774;SDS011;44545;47.480;19.024;2022-09-29T10:17:20;0.60;;;0.40;;
58774;SDS011;44545;47.480;19.024;2022-09-29T10:20:32;0.93;;;0.60;;
58774;SDS011;44545;47.480;19.024;2022-09-29T10:23:35;1.00;;;0.60;;
58774;SDS011;44545;47.480;19.024;2022-09-29T10:26:41;0.73;;;0.47;;
58774;SDS011;44545;47.480;19.024;2022-09-29T10:29:45;1.55;;;0.75;;
58774;SDS011;44545;47.480;19.024;2022-09-29T10:32:51;1.42;;;0.60;;
58774;SDS011;44545;47.480;19.024;2022-09-29T10:36:03;2.10;;;0.55;;
58774;SDS011;44545;47.480;19.024;2022-09-29T10:39:09;0.47;;;0.47;;
58774;SDS011;44545;47.480;19.024;2022-09-29T10:42:34;0.10;;;0.10;;
58774;SDS011;44545;47.480;19.024;2022-09-29T10:45:47;0.20;;;0.20;;
58774;SDS011;44545;47.480;19.024;2022-09-29T10:49:07;0.13;;;0.10;;
58774;SDS011;44545;47.480;19.024;2022-09-29T10:52:24;0.47;;;0.17;;
58774;SDS011;44545;47.480;19.024;2022-09-29T10:55:32;0.17;;;0.10;;
58774;SDS011;44545;47.480;19.024;2022-09-29T10:58:36;0.52;;;0.28;;
58774;SDS011;44545;47.480;19.024;2022-09-29T11:01:59;0.35;;;0.20;;
58774;SDS011;44545;47.480;19.024;2022-09-29T11:05:03;0.62;;;0.37;;
58774;SDS011;44545;47.480;19.024;2022-09-29T11:08:17;0.32;;;0.20;;
58774;SDS011;44545;47.480;19.024;2022-09-29T11:11:29;1.73;;;0.30;;
58774;SDS011;44545;47.480;19.024;2022-09-29T11:17:38;0.70;;;0.57;;
58774;SDS011;44545;47.480;19.024;2022-09-29T11:31:22;0.28;;;0.13;;
58774;SDS011;44545;47.480;19.024;2022-09-29T11:41:39;0.60;;;0.35;;
58774;SDS011;44545;47.480;19.024;2022-09-29T11:44:48;0.30;;;0.28;;
58774;SDS011;44545;47.480;19.024;2022-09-29T11:48:12;0.40;;;0.20;;
58774;SDS011;44545;47.480;19.024;2022-09-29T11:55:24;0.10;;;0.10;;
58774;SDS011;44545;47.480;19.024;2022-09-29T12:01:54;1.98;;;0.30;;
58774;SDS011;44545;47.480;19.024;2022-09-29T12:05:32;0.28;;;0.10;;
58774;SDS011;44545;47.480;19.024;2022-09-29T12:11:59;0.10;;;0.10;;
58774;SDS011;44545;47.480;19.024;2022-09-29T12:15:26;0.35;;;0.20;;
58774;SDS011;44545;47.480;19.024;2022-09-29T12:18:53;0.10;;;0.10;;
58774;SDS011;44545;47.480;19.024;2022-09-29T12:21:59;0.52;;;0.20;;
58774;SDS011;44545;47.480;19.024;2022-09-29T12:25:05;0.20;;;0.20;;
58774;SDS011;44545;47.480;19.024;2022-09-29T12:28:14;0.30;;;0.28;;
58774;SDS011;44545;47.480;19.024;2022-09-29T12:31:31;0.17;;;0.15;;
58774;SDS011;44545;47.480;19.024;2022-09-29T12:34:39;0.30;;;0.30;;
58774;SDS011;44545;47.480;19.024;2022-09-29T12:37:48;0.30;;;0.20;;
58774;SDS011;44545;47.480;19.024;2022-09-29T12:41:03;0.28;;;0.20;;
58774;SDS011;44545;47.480;19.024;2022-09-29T12:44:17;0.50;;;0.30;;
58774;SDS011;44545;47.480;19.024;2022-09-29T12:47:34;0.35;;;0.30;;
58774;SDS011;44545;47.480;19.024;2022-09-29T12:50:51;0.30;;;0.20;;
58774;SDS011;44545;47.480;19.024;2022-09-29T12:54:07;0.57;;;0.40;;
58774;SDS011;44545;47.480;19.024;2022-09-29T12:57:17;0.82;;;0.32;;
58774;SDS011;44545;47.480;19.024;2022-09-29T13:00:25;0.28;;;0.22;;
58774;SDS011;44545;47.480;19.024;2022-09-29T13:16:58;8.05;;;0.50;;
58774;SDS011;44545;47.480;19.024;2022-09-29T13:20:32;0.37;;;0.20;;
58774;SDS011;44545;47.480;19.024;2022-09-29T13:27:19;0.43;;;0.30;;
58774;SDS011;44545;47.480;19.024;2022-09-29T13:30:32;0.13;;;0.13;;
58774;SDS011;44545;47.480;19.024;2022-09-29T13:33:37;0.62;;;0.40;;
58774;SDS011;44545;47.480;19.024;2022-09-29T13:36:41;0.47;;;0.30;;
58774;SDS011;44545;47.480;19.024;2022-09-29T13:39:53;0.13;;;0.13;;
58774;SDS011;44545;47.480;19.024;2022-09-29T13:43:13;2.08;;;0.62;;
58774;SDS011;44545;47.480;19.024;2022-09-29T13:47:26;0.43;;;0.25;;
58774;SDS011;44545;47.480;19.024;2022-09-29T13:50:43;0.20;;;0.15;;
58774;SDS011;44545;47.480;19.024;2022-09-29T13:57:30;1.33;;;0.22;;
58774;SDS011;44545;47.480;19.024;2022-09-29T14:00:33;0.47;;;0.20;;
58774;SDS011;44545;47.480;19.024;2022-09-29T14:03:43;0.15;;;0.13;;
58774;SDS011;44545;47.480;19.024;2022-09-29T14:06:46;0.40;;;0.15;;
58774;SDS011;44545;47.480;19.024;2022-09-29T14:09:49;0.52;;;0.40;;
58774;SDS011;44545;47.480;19.024;2022-09-29T14:12:56;0.47;;;0.40;;
58774;SDS011;44545;47.480;19.024;2022-09-29T14:16:26;0.32;;;0.20;;
58774;SDS011;44545;47.480;19.024;2022-09-29T14:19:45;0.32;;;0.30;;
58774;SDS011;44545;47.480;19.024;2022-09-29T14:26:02;0.52;;;0.30;;
58774;SDS011;44545;47.480;19.024;2022-09-29T14:29:04;0.57;;;0.43;;
58774;SDS011;44545;47.480;19.024;2022-09-29T14:32:22;0.22;;;0.13;;
58774;SDS011;44545;47.480;19.024;2022-09-29T14:35:36;0.80;;;0.40;;
58774;SDS011;44545;47.480;19.024;2022-09-29T14:38:48;0.55;;;0.40;;
58774;SDS011;44545;47.480;19.024;2022-09-29T14:42:14;0.77;;;0.43;;
58774;SDS011;44545;47.480;19.024;2022-09-29T14:45:17;0.15;;;0.13;;
58774;SDS011;44545;47.480;19.024;2022-09-29T14:48:43;0.80;;;0.45;;
58774;SDS011;44545;47.480;19.024;2022-09-29T14:55:55;0.10;;;0.10;;
58774;SDS011;44545;47.480;19.024;2022-09-29T14:59:22;0.45;;;0.25;;
58774;SDS011;44545;47.480;19.024;2022-09-29T15:02:31;0.70;;;0.40;;
58774;SDS011;44545;47.480;19.024;2022-09-29T15:05:38;1.05;;;0.62;;
58774;SDS011;44545;47.480;19.024;2022-09-29T15:08:41;0.50;;;0.30;;
58774;SDS011;44545;47.480;19.024;2022-09-29T15:11:52;0.65;;;0.50;;
58774;SDS011;44545;47.480;19.024;2022-09-29T15:14:57;0.50;;;0.40;;
58774;SDS011;44545;47.480;19.024;2022-09-29T15:18:04;0.30;;;0.30;;
